Domov               UVHVVR             MKGP            O straneh              
ZDRAVSTVENO VARSTVO RASTLIN
  MREŽA AGROMET. POSTAJ
 ► PROGNOSTIČNA OBVESTILA
AGROMETEOROLOŠKI PODATKI -
ARSO
OBVLADOVANJE TVEGANJ ZARADI
NEUGODNIH VREMENSKIH RAZMER
  ► NARAVNE NESREČE
  ► SUŠA/MOČA
  ► NAMAKANJE
  ► ŽLED (gozdarstvo)
KARTOGRAFSKI PRIKAZI
SPLETNE POVEZAVE
PROJEKTI IN PUBLIKACIJE

AGROMETEOROLOŠKA MREŽA: VREMENSKE POSTAJE IN FENOLOŠKA OPAZOVANJA

Pregled podatkov za lokacijo Selnica ob Dravi, meteorološka postaja 49160

Pregled senzorjev na lokaciji

ID Ime Zadnja
vrednost
Datum
zadnje
spremembe
Tip
senzorja
3696 Temperatura 2 m (°C) 0,66 °C 16.12.2017 19:00 50YA
3697 Relativna vlaga 2 m (% RH) 98,88 % RH 16.12.2017 19:00 50YA
3698 Omočenost lista (U) 10 U 16.12.2017 19:00 A730WET
3699 Sončno sevanje (W/m2) 0,43 W/m2 16.12.2017 19:00 Pyranometer SP-Lite
3700 Temperatura tal 5 cm (°C) 4,36 °C 16.12.2017 19:00 99TG411E
3701 Hitrost vetra (km/h) 3,92 km/h 16.12.2017 19:00 566.2S-176 (200km/h)
3702 Smer vetra (°) 184,2 ° 16.12.2017 19:00 566.2S-130
3703 Padavine (mm) 0 mm 16.12.2017 19:00 Rain-O-Matic

Pregled podatkov zadnjih 24 ur

Zap.
št.
Datum in čas Selnica ob Dravi
Hitrost
vetra
Omočenost
lista
Padavine Relativna
vlaga
2
m
Smer
vetra
Sončno
sevanje
Temperatura
2
m
Temperatura
tal
5
cm
0 16.12.2017 19:00 3,92 10 0 98,88 184,2 0,43 0,66 4,36
1 16.12.2017 18:30 3,67 10 0 98,08 199,01 0,4 0,49 4,37
2 16.12.2017 18:00 2,96 9 0 96,7 233,47 0,46 0,76 4,39
3 16.12.2017 17:30 2,19 9 0 97 259,98 0,43 1,24 4,4
4 16.12.2017 17:00 3,55 7 0 95,83 228,33 0,49 1,67 4,43
5 16.12.2017 16:30 2,08 4 0 94,72 211,01 2,66 2,28 4,45
6 16.12.2017 16:00 2,08 2 0 93,9 203,05 10,96 2,97 4,47
7 16.12.2017 15:30 2,92 0 0 89,47 227,15 26,15 3,93 4,49
8 16.12.2017 15:00 1,79 0 0 85,6 228,72 54,44 4,66 4,5
9 16.12.2017 14:30 2,64 0 0 81,69 251,41 66,96 5,02 4,51
10 16.12.2017 14:00 5,1 0 0 79,88 221,1 124,64 5,42 4,52
11 16.12.2017 13:30 6,03 0 0 79,73 256,41 204,87 5,57 4,51
12 16.12.2017 13:00 7,03 0 0 79,51 268,64 127,44 5,23 4,42
13 16.12.2017 12:30 5,87 0 0 78,57 317,21 153,17 5,56 4,43
14 16.12.2017 12:00 5,35 0 0 79,56 247,86 212,8 5,56 4,43
15 16.12.2017 11:30 4,33 0 0 79,67 263,68 364,48 6,06 4,47
16 16.12.2017 11:00 4,72 0 0 85,16 251,24 306,16 5,03 4,38
17 16.12.2017 10:30 2,61 0 0 93,62 193,71 181,09 3,85 4,28
18 16.12.2017 10:00 2,9 0 0 96,52 229,95 90,67 2,89 4,23
19 16.12.2017 09:30 3,59 0 0 99,27 262,43 44,16 2,32 4,2
20 16.12.2017 09:00 3,43 2 0 99,98 221,94 28,35 2,03 4,19
21 16.12.2017 08:30 2,06 2 0 99,98 272,5 15,2 1,81 4,19
22 16.12.2017 08:00 1,28 2 0 99,98 223,89 4,24 1,74 4,19
23 16.12.2017 07:30 1,08 1 0 99,54 278,7 0,61 1,74 4,19
24 16.12.2017 07:00 2,43 1 0 99,14 252,84 0,43 1,97 4,22
25 16.12.2017 06:30 3,66 2 0 99,79 234,57 0,43 1,96 4,22
26 16.12.2017 06:00 2,9 3 0 99,99 246,06 0,4 1,79 4,23
27 16.12.2017 05:30 3,56 3 0 99,99 222,34 0,37 1,81 4,24
28 16.12.2017 05:00 1,78 3 0 99,99 201,43 0,43 1,67 4,24
29 16.12.2017 04:30 2,84 3 0 99,99 285,77 0,43 1,72 4,25
30 16.12.2017 04:00 2,44 3 0 99,96 265,29 0,46 1,85 4,27
31 16.12.2017 03:30 2,48 3 0,2 99,96 255,17 0,43 1,94 4,28
32 16.12.2017 03:00 4,29 5 0 99,99 260,12 0,37 1,84 4,3
33 16.12.2017 02:30 4,33 3 0 99,99 219,94 0,43 1,67 4,3
34 16.12.2017 02:00 3,48 3 0 99,98 277,16 0,43 1,54 4,31
35 16.12.2017 01:30 2,41 3 0,2 99,98 268,3 0,43 1,61 4,33
36 16.12.2017 01:00 3,31 3 0,2 99,98 235,36 1,61 4,34
37 16.12.2017 00:30 2,44 2 0,2 99,99 274,5 1,63 4,36
38 16.12.2017 00:00 4,6 2 0,2 99,99 281,31 1,59 4,36
39 15.12.2017 23:30 4,12 2 0 99,98 281,35 1,45 4,38
40 15.12.2017 23:00 1,7 1 0,2 99,99 198,47 1,43 4,39
41 15.12.2017 22:30 0,9 2 0,6 99,98 198,54 1,62 4,42
42 15.12.2017 22:00 3,34 2 0,4 99,99 280,36 1,69 4,42
43 15.12.2017 21:30 0,58 2 0,4 99,96 317,24 1,88 4,44
44 15.12.2017 21:00 0,5 2 0,8 99,75 144,1 2,16 4,47
45 15.12.2017 20:30 2,01 2 0,6 99,97 284,87 2,36 4,48
46 15.12.2017 20:00 5,1 2 0,6 99,99 204,29 2,39 4,51
47 15.12.2017 19:30 3,63 2 0,6 99,99 270,21 2,44 4,52
© 2011 Ministrstvo za kmetijstvo, gozdarstvo in prehrano. Vse pravice pridržane.